Time;durP1;ratioP1;P1;durP2;ratioP2;P2;SDS_P1;SDS_P2;PMS_P1;PMS_P2;Temp;Humidity;BMP_temperature;BMP_pressure;BME280_temperature;BME280_humidity;BME280_pressure;Samples;Min_cycle;Max_cycle;Signal;HPM_P1;HPM_P2
2021/08/25 00:01:35;;;;;;;3.1;2.8;;;;;;;14.86;89.90137;942.2637;;;;
2021/08/25 00:04:01;;;;;;;3.2;2.9;;;;;;;14.84;90.00195;942.2967;;;;
2021/08/25 00:06:26;;;;;;;3.1;2.7;;;;;;;14.85;89.91309;942.3079;;;;
2021/08/25 00:08:51;;;;;;;2.9;2.7;;;;;;;14.89;89.70117;942.2581;;;;
2021/08/25 00:11:16;;;;;;;3.1;2.8;;;;;;;14.88;89.71094;942.2366;;;;
2021/08/25 00:13:41;;;;;;;3.6;3.2;;;;;;;14.88;89.47852;942.1877;;;;
2021/08/25 00:16:06;;;;;;;3.1;2.8;;;;;;;14.78;89.8291;942.1922;;;;
2021/08/25 00:18:31;;;;;;;3.1;2.8;;;;;;;14.71;90.14844;942.1945;;;;
2021/08/25 00:20:56;;;;;;;4;2.8;;;;;;;14.75;90.14453;942.12;;;;
2021/08/25 00:23:21;;;;;;;2.9;2.6;;;;;;;14.77;89.86035;942.0647;;;;
2021/08/25 00:25:46;;;;;;;3.3;3;;;;;;;14.75;89.67383;942.1;;;;
2021/08/25 00:28:12;;;;;;;2.8;2.6;;;;;;;14.79;89.47168;942.0887;;;;
2021/08/25 00:30:37;;;;;;;3.1;2.7;;;;;;;14.76;89.78906;942.1088;;;;
2021/08/25 00:33:03;;;;;;;3.1;2.8;;;;;;;14.78;89.64453;942.0391;;;;
2021/08/25 00:35:28;;;;;;;3.4;3.1;;;;;;;14.81;89.56738;941.938;;;;
2021/08/25 00:37:53;;;;;;;3.4;2.9;;;;;;;14.76;89.80078;942.0182;;;;
2021/08/25 00:40:18;;;;;;;3.6;3.3;;;;;;;14.76;89.62793;941.9573;;;;
2021/08/25 00:42:43;;;;;;;4.1;3.2;;;;;;;14.75;89.82129;941.8844;;;;
2021/08/25 00:45:09;;;;;;;3.4;3.1;;;;;;;14.68;90.22168;941.9325;;;;
2021/08/25 00:47:34;;;;;;;3.5;3.2;;;;;;;14.7;90.08691;941.9549;;;;
2021/08/25 00:49:59;;;;;;;3.5;3.2;;;;;;;14.61;90.62402;941.9386;;;;
2021/08/25 00:52:24;;;;;;;3.5;3.1;;;;;;;14.58;90.83496;941.9122;;;;
2021/08/25 00:54:49;;;;;;;3.9;3.5;;;;;;;14.61;90.85449;941.9355;;;;
2021/08/25 00:57:14;;;;;;;3.4;3.1;;;;;;;14.66;90.65625;941.9189;;;;
2021/08/25 01:02:04;;;;;;;3.2;2.9;;;;;;;14.73;90.2793;941.9741;;;;
2021/08/25 01:04:29;;;;;;;3.7;3.3;;;;;;;14.73;90.31348;941.9918;;;;
2021/08/25 01:06:54;;;;;;;3.5;3.2;;;;;;;14.64;90.55859;941.9942;;;;
2021/08/25 01:09:19;;;;;;;3.7;3.3;;;;;;;14.67;90.36816;941.9453;;;;
2021/08/25 01:11:47;;;;;;;3.5;3.2;;;;;;;14.59;90.37598;941.9194;;;;
2021/08/25 01:14:10;;;;;;;3.7;3.1;;;;;;;14.55;90.91211;941.937;;;;
2021/08/25 01:16:35;;;;;;;4.2;3.2;;;;;;;14.51;91.22363;941.9066;;;;
2021/08/25 01:19:00;;;;;;;3.7;3.3;;;;;;;14.57;90.94824;941.9747;;;;
2021/08/25 01:21:25;;;;;;;3.7;3.2;;;;;;;14.56;90.88867;941.9723;;;;
2021/08/25 01:23:50;;;;;;;3.7;3.4;;;;;;;14.5;90.93555;941.9114;;;;
2021/08/25 01:26:16;;;;;;;3.6;3.1;;;;;;;14.46;91.55957;941.9355;;;;
2021/08/25 01:29:30;;;;;;;3.6;3.2;;;;;;;14.54;91.15039;941.9955;;;;
2021/08/25 01:31:56;;;;;;;3.3;3;;;;;;;14.57;91.25;941.945;;;;
2021/08/25 01:34:21;;;;;;;3.7;3.2;;;;;;;14.64;90.88086;942.0022;;;;
2021/08/25 01:36:46;;;;;;;3.4;3;;;;;;;14.65;90.97656;941.9437;;;;
2021/08/25 01:39:11;;;;;;;3.4;3.1;;;;;;;14.63;90.83496;941.9485;;;;
2021/08/25 01:41:36;;;;;;;3.4;3.1;;;;;;;14.61;91.14063;941.8425;;;;
2021/08/25 01:44:01;;;;;;;6;3.7;;;;;;;14.64;91.27246;941.8491;;;;
2021/08/25 01:46:27;;;;;;;3.6;3.1;;;;;;;14.58;91.58398;941.7399;;;;
2021/08/25 01:48:52;;;;;;;3.5;2.9;;;;;;;14.56;92.30664;941.7856;;;;
2021/08/25 01:51:17;;;;;;;3.7;3.3;;;;;;;14.6;91.77441;941.8328;;;;
2021/08/25 01:53:42;;;;;;;3.7;3.2;;;;;;;14.63;91.28418;941.741;;;;
2021/08/25 01:56:07;;;;;;;3.5;3.2;;;;;;;14.65;90.58496;941.793;;;;
2021/08/25 01:58:32;;;;;;;4.3;3.7;;;;;;;14.59;90.56055;941.7679;;;;
2021/08/25 02:00:57;;;;;;;5;3.2;;;;;;;14.5;90.90039;941.7239;;;;
2021/08/25 02:03:22;;;;;;;3.5;3.2;;;;;;;14.49;90.94336;941.7175;;;;
2021/08/25 02:05:49;;;;;;;3.4;3.1;;;;;;;14.53;90.5957;941.6581;;;;
2021/08/25 02:08:14;;;;;;;3.9;3.4;;;;;;;14.54;90.67578;941.6902;;;;
2021/08/25 02:10:58;;;;;;;4.1;3.7;;;;;;;14.5;90.72754;941.6037;;;;
2021/08/25 02:13:23;;;;;;;4.7;3.9;;;;;;;14.55;90.81836;941.598;;;;
2021/08/25 02:15:48;;;;;;;4.1;3.7;;;;;;;14.35;92.25098;941.6768;;;;
2021/08/25 02:18:13;;;;;;;4.3;3.7;;;;;;;14.32;92.42773;941.6824;;;;
2021/08/25 02:20:38;;;;;;;4.4;3.9;;;;;;;14.35;92.7002;941.6872;;;;
2021/08/25 02:23:03;;;;;;;5.1;4.1;;;;;;;14.35;92.9541;941.6616;;;;
2021/08/25 02:25:28;;;;;;;4.4;3.8;;;;;;;14.3;93.06836;941.6552;;;;
2021/08/25 02:27:54;;;;;;;4.5;4.1;;;;;;;14.35;93.01074;941.6359;;;;
2021/08/25 02:30:19;;;;;;;4.1;3.7;;;;;;;14.28;92.9502;941.6142;;;;
2021/08/25 02:32:44;;;;;;;4.9;4.2;;;;;;;14.41;92.49316;941.6231;;;;
2021/08/25 02:35:10;;;;;;;4.9;3.9;;;;;;;14.36;92.35449;941.579;;;;
2021/08/25 02:37:35;;;;;;;4.9;4.4;;;;;;;14.03;93.97754;941.5361;;;;
2021/08/25 02:40:00;;;;;;;5.6;4.5;;;;;;;14.1;93.7168;941.5369;;;;
2021/08/25 02:42:25;;;;;;;6.3;4.6;;;;;;;14.2;93.30078;941.5129;;;;
2021/08/25 02:44:50;;;;;;;5.5;4.6;;;;;;;14.17;93.2373;941.4986;;;;
2021/08/25 02:47:15;;;;;;;5.2;4.4;;;;;;;14.24;93.14746;941.4853;;;;
2021/08/25 02:49:41;;;;;;;5.5;4.4;;;;;;;14.17;93.30664;941.4905;;;;
2021/08/25 02:52:06;;;;;;;5.1;4.4;;;;;;;13.85;94.68652;941.4274;;;;
2021/08/25 02:54:31;;;;;;;5.5;4.5;;;;;;;13.69;95.7002;941.3971;;;;
2021/08/25 02:56:56;;;;;;;4.8;4.3;;;;;;;13.73;96.15625;941.3596;;;;
2021/08/25 02:59:21;;;;;;;6.1;4.7;;;;;;;13.87;95.65723;941.3778;;;;
2021/08/25 03:01:46;;;;;;;5.3;4.5;;;;;;;14.03;94.24219;941.3295;;;;
2021/08/25 03:04:11;;;;;;;5;4.5;;;;;;;14.14;93.47168;941.3992;;;;
2021/08/25 03:06:36;;;;;;;4.5;4.1;;;;;;;14.01;93.80176;941.3315;;;;
2021/08/25 03:09:01;;;;;;;5.1;4.4;;;;;;;14.15;93.33691;941.38;;;;
2021/08/25 03:11:27;;;;;;;4.9;4.2;;;;;;;14.25;92.72559;941.4132;;;;
2021/08/25 03:13:52;;;;;;;5.3;4.4;;;;;;;14.31;92.17383;941.358;;;;
2021/08/25 03:16:18;;;;;;;4.9;4.4;;;;;;;14.13;93.31055;941.3536;;;;
2021/08/25 03:18:43;;;;;;;5.7;5.1;;;;;;;14.19;93.11426;941.3279;;;;
2021/08/25 03:21:09;;;;;;;5.1;4.2;;;;;;;14.21;92.88867;941.3287;;;;
2021/08/25 03:23:33;;;;;;;5.1;4.6;;;;;;;14.28;92.66211;941.136;;;;
2021/08/25 03:25:58;;;;;;;4.8;4.3;;;;;;;14.27;92.48926;941.1384;;;;
2021/08/25 03:28:24;;;;;;;4.4;4;;;;;;;14.28;92.37402;941.2434;;;;
2021/08/25 03:30:49;;;;;;;4.4;3.9;;;;;;;14.33;92.1416;941.1561;;;;
2021/08/25 03:33:14;;;;;;;5.6;4.4;;;;;;;14.36;92.12598;941.2001;;;;
2021/08/25 03:35:39;;;;;;;5.2;3.7;;;;;;;14.35;92.20508;941.1801;;;;
2021/08/25 03:38:05;;;;;;;4.2;3.8;;;;;;;14.33;92.39453;941.1769;;;;
2021/08/25 03:40:30;;;;;;;5.1;4.2;;;;;;;14.38;92.1875;941.1736;;;;
2021/08/25 03:43:19;;;;;;;5.4;4.2;;;;;;;14.37;91.95508;941.1808;;;;
2021/08/25 03:45:45;;;;;;;5.1;4;;;;;;;14.37;91.78027;941.156;;;;
2021/08/25 03:48:10;;;;;;;4.7;4.2;;;;;;;14.38;91.71484;941.0975;;;;
2021/08/25 03:50:36;;;;;;;6;4.4;;;;;;;14.31;91.69043;941.1016;;;;
2021/08/25 03:53:01;;;;;;;4.5;3.9;;;;;;;14.34;91.76563;940.9934;;;;
2021/08/25 03:55:26;;;;;;;6.1;4.6;;;;;;;14.4;91.42188;941.0214;;;;
2021/08/25 03:57:51;;;;;;;4.9;4.4;;;;;;;14.4;91.50195;940.9797;;;;
2021/08/25 04:02:31;;;;;;;4;3.6;;;;;;;14.41;91.05273;940.9052;;;;
2021/08/25 04:04:56;;;;;;;5.1;4.3;;;;;;;14.41;90.87988;940.8611;;;;
2021/08/25 04:07:22;;;;;;;5;4.4;;;;;;;14.5;90.73926;940.8624;;;;
2021/08/25 04:09:47;;;;;;;5.6;4.4;;;;;;;14.47;91.06641;940.8456;;;;
2021/08/25 04:12:12;;;;;;;4.3;3.8;;;;;;;14.33;91.39258;940.8636;;;;
2021/08/25 04:14:37;;;;;;;5.2;3.9;;;;;;;14.23;91.82324;940.8758;;;;
2021/08/25 04:17:02;;;;;;;4.8;4.1;;;;;;;14.31;91.71191;940.9069;;;;
2021/08/25 04:19:27;;;;;;;4.5;3.6;;;;;;;14.29;91.74219;940.8973;;;;
2021/08/25 04:21:52;;;;;;;4.3;3.9;;;;;;;14.33;91.55469;940.9277;;;;
2021/08/25 04:24:17;;;;;;;4;3.6;;;;;;;14.22;92.89063;940.9374;;;;
2021/08/25 04:26:43;;;;;;;4.6;3.7;;;;;;;14.3;92.45801;940.9558;;;;
2021/08/25 04:29:08;;;;;;;4.1;3.7;;;;;;;14.29;92.52734;940.9125;;;;
2021/08/25 04:31:52;;;;;;;4.1;3.7;;;;;;;14.28;92.37402;940.9478;;;;
2021/08/25 04:34:18;;;;;;;4.5;3.8;;;;;;;14.3;92.41211;940.8965;;;;
2021/08/25 04:36:44;;;;;;;4.3;3.7;;;;;;;14.31;91.97656;940.943;;;;
2021/08/25 04:39:09;;;;;;;4;3.4;;;;;;;14.36;91.45605;940.9077;;;;
2021/08/25 04:41:34;;;;;;;4.3;3.8;;;;;;;14.29;92.00684;940.9102;;;;
2021/08/25 04:43:59;;;;;;;3.6;3.3;;;;;;;14.25;92.32227;940.9126;;;;
2021/08/25 04:46:24;;;;;;;3.7;3.3;;;;;;;14.27;92.53125;940.9326;;;;
2021/08/25 04:48:51;;;;;;;4.4;3.7;;;;;;;14.33;92.08398;940.955;;;;
2021/08/25 04:51:16;;;;;;;5.2;3.9;;;;;;;14.33;92.2334;940.9734;;;;
2021/08/25 04:53:42;;;;;;;5.3;4.2;;;;;;;14.33;92.46387;940.9085;;;;
2021/08/25 04:56:07;;;;;;;4.7;4.1;;;;;;;14.35;92.59668;940.9918;;;;
2021/08/25 04:58:33;;;;;;;4.3;3.9;;;;;;;14.43;92.2334;940.9931;;;;
2021/08/25 05:00:58;;;;;;;4.7;4.1;;;;;;;14.44;91.91113;941.0123;;;;
2021/08/25 05:03:24;;;;;;;4.9;4;;;;;;;14.52;91.13281;941.009;;;;
2021/08/25 05:05:49;;;;;;;4.4;3.4;;;;;;;14.48;91.48242;941.05;;;;
2021/08/25 05:08:14;;;;;;;4.1;3.5;;;;;;;14.53;90.92969;941.0267;;;;
2021/08/25 05:10:40;;;;;;;3.5;3.2;;;;;;;14.54;90.78125;940.9056;;;;
2021/08/25 05:13:05;;;;;;;4.3;3.4;;;;;;;14.64;90.30469;941.022;;;;
2021/08/25 05:15:30;;;;;;;3.4;3.1;;;;;;;14.61;90.45996;941.0289;;;;
2021/08/25 05:17:57;;;;;;;4.4;3.8;;;;;;;14.65;90.18164;941.0019;;;;
2021/08/25 05:20:22;;;;;;;4.4;3.6;;;;;;;14.67;90.09473;941.0211;;;;
2021/08/25 05:22:47;;;;;;;4.9;4.2;;;;;;;14.71;89.92969;941.0306;;;;
2021/08/25 05:25:14;;;;;;;5.2;4.3;;;;;;;14.61;90.93262;941.0787;;;;
2021/08/25 05:27:39;;;;;;;5.3;4.5;;;;;;;14.59;91.21777;941.1075;;;;
2021/08/25 05:30:05;;;;;;;4.5;3.7;;;;;;;14.7;90.45801;941.0804;;;;
2021/08/25 05:32:30;;;;;;;5.4;4.1;;;;;;;14.68;90.46582;941.0636;;;;
2021/08/25 05:34:56;;;;;;;4.4;3.8;;;;;;;14.78;89.77148;941.0834;;;;
2021/08/25 05:37:21;;;;;;;5.6;4.7;;;;;;;14.78;89.97949;941.0786;;;;
2021/08/25 05:39:47;;;;;;;6;4.7;;;;;;;14.75;90.00781;941.0915;;;;
2021/08/25 05:42:14;;;;;;;5.3;4.7;;;;;;;14.85;90.33789;941.0506;;;;
2021/08/25 05:44:40;;;;;;;7.2;5.9;;;;;;;14.79;90.02539;941.0978;;;;
2021/08/25 05:47:05;;;;;;;6.6;5.6;;;;;;;14.78;90.80762;941.1083;;;;
2021/08/25 05:49:31;;;;;;;6.6;5.8;;;;;;;14.77;91.41602;941.1011;;;;
2021/08/25 05:51:56;;;;;;;7.5;5.9;;;;;;;14.85;91.39844;941.1085;;;;
2021/08/25 05:54:22;;;;;;;6.4;5.5;;;;;;;14.85;90.99512;941.1164;;;;
2021/08/25 05:56:47;;;;;;;6.3;5.5;;;;;;;14.83;90.74707;941.0628;;;;
2021/08/25 05:59:12;;;;;;;6;5.3;;;;;;;14.8;91.51465;941.0497;;;;
2021/08/25 06:01:37;;;;;;;7.3;5.7;;;;;;;14.78;91.45313;941.0249;;;;
2021/08/25 06:04:02;;;;;;;6.9;5.3;;;;;;;14.85;90.43066;941.0643;;;;
2021/08/25 06:06:28;;;;;;;7.8;6.3;;;;;;;14.58;92.28711;941.053;;;;
2021/08/25 06:08:53;;;;;;;6.1;5.3;;;;;;;14.73;91.83594;941.0723;;;;
2021/08/25 06:11:18;;;;;;;6.7;5.4;;;;;;;14.8;91.45898;941.1066;;;;
2021/08/25 06:13:43;;;;;;;8;5.6;;;;;;;14.88;91.74121;941.1052;;;;
2021/08/25 06:16:08;;;;;;;6.5;5.8;;;;;;;15.13;89.66895;941.1175;;;;
2021/08/25 06:18:33;;;;;;;6.2;5.6;;;;;;;14.88;91.3125;941.0883;;;;
2021/08/25 06:20:58;;;;;;;7.3;6;;;;;;;14.78;91.60254;941.041;;;;
2021/08/25 06:23:23;;;;;;;6.8;5.7;;;;;;;14.51;93.10156;941.0644;;;;
2021/08/25 06:25:50;;;;;;;7.6;6.4;;;;;;;14.64;93.28027;941.0597;;;;
2021/08/25 06:28:14;;;;;;;7.6;6;;;;;;;14.86;91.76953;940.9865;;;;
2021/08/25 06:30:39;;;;;;;6.3;5.6;;;;;;;15.08;90.46582;940.9396;;;;
2021/08/25 06:33:04;;;;;;;6.2;5.6;;;;;;;15.19;89.90137;940.9504;;;;
2021/08/25 06:35:30;;;;;;;5.7;5.1;;;;;;;15.18;88.77832;940.9456;;;;
2021/08/25 06:37:56;;;;;;;6;5.3;;;;;;;15.28;88.19824;940.9439;;;;
2021/08/25 06:40:21;;;;;;;5.8;4.9;;;;;;;15.36;87.30371;940.9612;;;;
2021/08/25 06:42:46;;;;;;;7.7;5.3;;;;;;;15.46;86.75781;940.9995;;;;
2021/08/25 06:45:11;;;;;;;5.4;4.6;;;;;;;15.56;86.50098;940.9461;;;;
2021/08/25 06:47:36;;;;;;;5.6;4.8;;;;;;;15.64;85.96191;940.9174;;;;
2021/08/25 06:50:01;;;;;;;6.1;5.1;;;;;;;15.69;86.83594;940.9403;;;;
2021/08/25 06:52:26;;;;;;;7.9;4.7;;;;;;;15.76;86.26074;940.9567;;;;
2021/08/25 06:54:51;;;;;;;4.7;4.2;;;;;;;;;;;;;
2021/08/25 06:57:16;;;;;;;5.3;4;;;;;;;;;;;;;
2021/08/25 06:59:41;;;;;;;5.9;4.4;;;;;;;;;;;;;
2021/08/25 07:02:07;;;;;;;5.4;4.6;;;;;;;;;;;;;
2021/08/25 07:04:32;;;;;;;5.2;4.4;;;;;;;;;;;;;
2021/08/25 07:06:57;;;;;;;5.2;4.4;;;;;;;;;;;;;
2021/08/25 07:09:22;;;;;;;5.3;4.5;;;;;;;;;;;;;
2021/08/25 07:11:47;;;;;;;5.5;4.3;;;;;;;;;;;;;
2021/08/25 07:14:12;;;;;;;5.2;4.6;;;;;;;;;;;;;
2021/08/25 07:16:37;;;;;;;4.8;4.1;;;;;;;;;;;;;
2021/08/25 07:19:03;;;;;;;4.5;3.8;;;;;;;;;;;;;
2021/08/25 07:21:27;;;;;;;4.8;3.8;;;;;;;;;;;;;
2021/08/25 07:23:53;;;;;;;4.4;3.5;;;;;;;;;;;;;
2021/08/25 07:26:18;;;;;;;3.4;3.1;;;;;;;;;;;;;
2021/08/25 07:28:44;;;;;;;3.1;2.8;;;;;;;;;;;;;
2021/08/25 07:31:08;;;;;;;4.4;2.5;;;;;;;;;;;;;
2021/08/25 07:33:33;;;;;;;2.3;2.1;;;;;;;;;;;;;
2021/08/25 07:35:58;;;;;;;2.3;2.1;;;;;;;;;;;;;
2021/08/25 07:38:23;;;;;;;2.5;1.9;;;;;;;;;;;;;
2021/08/25 07:40:48;;;;;;;2.5;2.2;;;;;;;;;;;;;
2021/08/25 07:43:13;;;;;;;2.3;2.1;;;;;;;;;;;;;
2021/08/25 07:45:38;;;;;;;2.6;2.2;;;;;;;;;;;;;
2021/08/25 07:48:04;;;;;;;2.4;2.2;;;;;;;;;;;;;
2021/08/25 07:50:29;;;;;;;2.3;2.1;;;;;;;;;;;;;
2021/08/25 07:52:54;;;;;;;2.6;2.2;;;;;;;;;;;;;
2021/08/25 07:55:19;;;;;;;1.9;1.7;;;;;;;;;;;;;
2021/08/25 07:57:44;;;;;;;1.8;1.7;;;;;;;;;;;;;
2021/08/25 08:00:09;;;;;;;1.4;1.3;;;;;;;;;;;;;
2021/08/25 08:02:34;;;;;;;1.7;1.6;;;;;;;;;;;;;
2021/08/25 08:04:59;;;;;;;1.4;1.3;;;;;;;;;;;;;
2021/08/25 08:07:24;;;;;;;1.8;1.7;;;;;;;;;;;;;
2021/08/25 08:09:49;;;;;;;2.4;1.6;;;;;;;;;;;;;
2021/08/25 08:12:14;;;;;;;2.4;1.9;;;;;;;;;;;;;
2021/08/25 08:14:39;;;;;;;1.9;1.8;;;;;;;;;;;;;
2021/08/25 08:17:05;;;;;;;2;1.8;;;;;;;;;;;;;
2021/08/25 08:19:33;;;;;;;2.2;1.9;;;;;;;;;;;;;
2021/08/25 08:21:55;;;;;;;2.1;1.9;;;;;;;;;;;;;
2021/08/25 08:24:20;;;;;;;1.8;1.7;;;;;;;;;;;;;
2021/08/25 08:26:45;;;;;;;1.6;1.5;;;;;;;;;;;;;
2021/08/25 08:29:11;;;;;;;1.9;1.7;;;;;;;;;;;;;
2021/08/25 08:31:36;;;;;;;1.7;1.6;;;;;;;;;;;;;
2021/08/25 08:34:01;;;;;;;1.7;1.6;;;;;;;;;;;;;
2021/08/25 08:36:26;;;;;;;1.9;1.8;;;;;;;;;;;;;
2021/08/25 08:38:51;;;;;;;2;1.8;;;;;;;;;;;;;
2021/08/25 08:41:16;;;;;;;1.4;1.3;;;;;;;;;;;;;
2021/08/25 08:43:41;;;;;;;1.2;1.1;;;;;;;;;;;;;
2021/08/25 08:46:07;;;;;;;1.2;1.1;;;;;;;;;;;;;
2021/08/25 08:48:34;;;;;;;1.3;1.2;;;;;;;;;;;;;
2021/08/25 08:50:57;;;;;;;2.2;1.3;;;;;;;;;;;;;
2021/08/25 08:53:22;;;;;;;1.1;1;;;;;;;;;;;;;
2021/08/25 08:55:47;;;;;;;2;1.3;;;;;;;;;;;;;
2021/08/25 08:58:13;;;;;;;1.3;1.2;;;;;;;;;;;;;
2021/08/25 09:00:39;;;;;;;1.5;1;;;;;;;;;;;;;
2021/08/25 09:03:03;;;;;;;1.2;1.1;;;;;;;;;;;;;
2021/08/25 09:05:28;;;;;;;1.3;1.2;;;;;;;;;;;;;
2021/08/25 09:07:53;;;;;;;1;1;;;;;;;;;;;;;
2021/08/25 09:10:18;;;;;;;1.5;1.3;;;;;;;;;;;;;
2021/08/25 09:12:43;;;;;;;1;1;;;;;;;;;;;;;
2021/08/25 09:15:08;;;;;;;1;0.9;;;;;;;;;;;;;
2021/08/25 09:17:34;;;;;;;0.9;0.9;;;;;;;;;;;;;
2021/08/25 09:19:59;;;;;;;1;0.9;;;;;;;;;;;;;
2021/08/25 09:22:27;;;;;;;1.2;1.1;;;;;;;;;;;;;
2021/08/25 09:24:49;;;;;;;1;0.9;;;;;;;;;;;;;
2021/08/25 09:27:15;;;;;;;1.4;1;;;;;;;;;;;;;
2021/08/25 09:29:39;;;;;;;1.7;1;;;;;;;;;;;;;
2021/08/25 09:32:04;;;;;;;1.6;1;;;;;;;;;;;;;
2021/08/25 09:34:30;;;;;;;2.7;1.1;;;;;;;;;;;;;
2021/08/25 09:36:55;;;;;;;1;1;;;;;;;;;;;;;
2021/08/25 09:39:20;;;;;;;1.3;1.2;;;;;;;;;;;;;
2021/08/25 09:41:45;;;;;;;1.5;1.1;;;;;;;;;;;;;
2021/08/25 09:44:11;;;;;;;1.2;1.1;;;;;;;;;;;;;
2021/08/25 09:46:36;;;;;;;1.1;1.1;;;;;;;;;;;;;
2021/08/25 09:49:01;;;;;;;3.5;1.4;;;;;;;;;;;;;
2021/08/25 09:51:26;;;;;;;1.7;0.9;;;;;;;;;;;;;
2021/08/25 09:53:51;;;;;;;1.5;1.1;;;;;;;;;;;;;
2021/08/25 09:56:17;;;;;;;1.1;1;;;;;;;;;;;;;
2021/08/25 09:58:42;;;;;;;1.7;1.5;;;;;;;;;;;;;
2021/08/25 10:01:07;;;;;;;1.4;1.3;;;;;;;;;;;;;
2021/08/25 10:03:32;;;;;;;1.4;1.3;;;;;;;;;;;;;
2021/08/25 10:05:57;;;;;;;1.8;1.4;;;;;;;;;;;;;
2021/08/25 10:08:23;;;;;;;1.6;1.5;;;;;;;;;;;;;
2021/08/25 10:10:48;;;;;;;2.1;1.6;;;;;;;;;;;;;
2021/08/25 10:13:13;;;;;;;2.1;1.9;;;;;;;;;;;;;
2021/08/25 10:15:38;;;;;;;2.2;1.9;;;;;;;;;;;;;
2021/08/25 10:18:03;;;;;;;4;2;;;;;;;;;;;;;
2021/08/25 10:20:33;;;;;;;1.9;1.8;;;;;;;;;;;;;
2021/08/25 10:22:53;;;;;;;2.6;2;;;;;;;;;;;;;
2021/08/25 10:25:18;;;;;;;1.8;1.7;;;;;;;;;;;;;
2021/08/25 10:27:44;;;;;;;1.8;1.7;;;;;;;;;;;;;
2021/08/25 10:30:09;;;;;;;1.7;1.6;;;;;;;;;;;;;
2021/08/25 10:32:34;;;;;;;2.3;1.8;;;;;;;;;;;;;
2021/08/25 10:34:59;;;;;;;1.9;1.8;;;;;;;;;;;;;
2021/08/25 10:37:24;;;;;;;2;1.7;;;;;;;;;;;;;
2021/08/25 10:39:53;;;;;;;2;1.8;;;;;;;;;;;;;
2021/08/25 10:42:14;;;;;;;2;1.9;;;;;;;;;;;;;
2021/08/25 10:44:39;;;;;;;2;1.6;;;;;;;;;;;;;
2021/08/25 10:47:04;;;;;;;2.2;2;;;;;;;;;;;;;
2021/08/25 10:49:30;;;;;;;1.9;1.7;;;;;;;;;;;;;
2021/08/25 10:51:55;;;;;;;2.1;1.6;;;;;;;;;;;;;
2021/08/25 10:54:20;;;;;;;1.5;1.4;;;;;;;;;;;;;
2021/08/25 10:56:45;;;;;;;2.1;1.9;;;;;;;;;;;;;
2021/08/25 10:59:10;;;;;;;1.9;1.7;;;;;;;;;;;;;
2021/08/25 11:01:35;;;;;;;1.6;1.5;;;;;;;;;;;;;
2021/08/25 11:04:00;;;;;;;1.6;1.4;;;;;;;;;;;;;
2021/08/25 11:06:25;;;;;;;2;1.8;;;;;;;;;;;;;
2021/08/25 11:08:50;;;;;;;1.5;1.4;;;;;;;;;;;;;
2021/08/25 11:11:15;;;;;;;1.5;1.4;;;;;;;;;;;;;
2021/08/25 11:13:40;;;;;;;1.9;1.3;;;;;;;;;;;;;
2021/08/25 11:16:05;;;;;;;1.7;1.3;;;;;;;;;;;;;
2021/08/25 11:18:31;;;;;;;1.4;1.3;;;;;;;;;;;;;
2021/08/25 11:20:56;;;;;;;1.4;1.3;;;;;;;;;;;;;
2021/08/25 11:23:21;;;;;;;2.2;1.7;;;;;;;;;;;;;
2021/08/25 11:25:46;;;;;;;1.7;1.6;;;;;;;;;;;;;
2021/08/25 11:28:11;;;;;;;1.7;1.5;;;;;;;;;;;;;
2021/08/25 11:30:40;;;;;;;1.4;1.3;;;;;;;;;;;;;
2021/08/25 11:33:03;;;;;;;1.5;1.4;;;;;;;;;;;;;
2021/08/25 11:35:27;;;;;;;2.1;1.6;;;;;;;;;;;;;
2021/08/25 11:37:52;;;;;;;2.3;1.6;;;;;;;;;;;;;
2021/08/25 11:40:17;;;;;;;1.8;1.7;;;;;;;;;;;;;
2021/08/25 11:42:42;;;;;;;1.9;1.6;;;;;;;;;;;;;
2021/08/25 11:45:07;;;;;;;2.1;1.3;;;;;;;;;;;;;
2021/08/25 11:47:32;;;;;;;1.4;1.3;;;;;;;;;;;;;
2021/08/25 11:49:57;;;;;;;2.6;1.6;;;;;;;;;;;;;
2021/08/25 11:52:22;;;;;;;1.5;1.4;;;;;;;;;;;;;
2021/08/25 11:54:50;;;;;;;1.7;1.6;;;;;;;;;;;;;
2021/08/25 11:57:17;;;;;;;1.5;1.4;;;;;;;;;;;;;
2021/08/25 11:59:41;;;;;;;2.1;1.6;;;;;;;;;;;;;
2021/08/25 12:02:06;;;;;;;1.7;1.6;;;;;;;;;;;;;
2021/08/25 12:04:31;;;;;;;1.6;1.5;;;;;;;;;;;;;
2021/08/25 12:06:56;;;;;;;1.6;1.5;;;;;;;;;;;;;
2021/08/25 12:09:21;;;;;;;1.8;1.7;;;;;;;;;;;;;
2021/08/25 12:11:46;;;;;;;2.4;2;;;;;;;;;;;;;
2021/08/25 12:14:11;;;;;;;2.2;2;;;;;;;;;;;;;
2021/08/25 12:16:36;;;;;;;2.3;1.7;;;;;;;;;;;;;
2021/08/25 12:19:02;;;;;;;2.7;1.9;;;;;;;;;;;;;
2021/08/25 12:21:27;;;;;;;2.1;1.9;;;;;;;;;;;;;
2021/08/25 12:23:52;;;;;;;2.4;2.2;;;;;;;;;;;;;
2021/08/25 12:26:17;;;;;;;2.5;2;;;;;;;;;;;;;
2021/08/25 12:28:42;;;;;;;2.4;2.2;;;;;;;;;;;;;
2021/08/25 12:31:07;;;;;;;2.3;2.1;;;;;;;;;;;;;
2021/08/25 12:33:32;;;;;;;2.2;2;;;;;;;;;;;;;
2021/08/25 12:35:57;;;;;;;3.3;2;;;;;;;;;;;;;
2021/08/25 12:38:22;;;;;;;2.8;2.2;;;;;;;;;;;;;
2021/08/25 12:40:48;;;;;;;2.7;2.4;;;;;;;;;;;;;
2021/08/25 12:43:13;;;;;;;2.4;2.1;;;;;;;;;;;;;
2021/08/25 12:45:38;;;;;;;2.4;1.8;;;;;;;;;;;;;
2021/08/25 12:48:03;;;;;;;2.6;2;;;;;;;;;;;;;
2021/08/25 12:50:28;;;;;;;2.2;2;;;;;;;;;;;;;
2021/08/25 12:52:53;;;;;;;2.6;1.9;;;;;;;;;;;;;
2021/08/25 12:55:18;;;;;;;2.6;1.8;;;;;;;;;;;;;
2021/08/25 12:57:43;;;;;;;2.8;2.1;;;;;;;;;;;;;
2021/08/25 13:00:08;;;;;;;2.4;2.2;;;;;;;;;;;;;
2021/08/25 13:02:33;;;;;;;2.2;2;;;;;;;;;;;;;
2021/08/25 13:04:59;;;;;;;2.3;2.1;;;;;;;;;;;;;
2021/08/25 13:07:24;;;;;;;2.2;2;;;;;;;;;;;;;
2021/08/25 13:09:49;;;;;;;2.5;2.3;;;;;;;;;;;;;
2021/08/25 13:12:14;;;;;;;2.1;1.9;;;;;;;;;;;;;
2021/08/25 13:14:39;;;;;;;2.6;1.9;;;;;;;;;;;;;
2021/08/25 13:17:04;;;;;;;2.6;2.2;;;;;;;;;;;;;
2021/08/25 13:19:30;;;;;;;2.2;2;;;;;;;;;;;;;
2021/08/25 13:21:55;;;;;;;1.9;1.7;;;;;;;;;;;;;
2021/08/25 13:24:20;;;;;;;2.2;2;;;;;;;;;;;;;
2021/08/25 13:26:45;;;;;;;3.1;2.1;;;;;;;;;;;;;
2021/08/25 13:29:10;;;;;;;2;1.8;;;;;;;;;;;;;
2021/08/25 13:34:37;;;;;;;2;1.8;;;;;;;;;;;;;
2021/08/25 13:37:02;;;;;;;1.7;1.6;;;;;;;;;;;;;
2021/08/25 13:39:27;;;;;;;2.1;1.9;;;;;;;;;;;;;
2021/08/25 13:41:52;;;;;;;2;1.8;;;;;;;;;;;;;
2021/08/25 13:44:17;;;;;;;1.7;1.6;;;;;;;;;;;;;
2021/08/25 13:46:42;;;;;;;1.9;1.8;;;;;;;;;;;;;
2021/08/25 13:49:07;;;;;;;1.7;1.6;;;;;;;;;;;;;
2021/08/25 13:51:32;;;;;;;2.2;1.6;;;;;;;;;;;;;
2021/08/25 13:53:58;;;;;;;2.4;1.8;;;;;;;;;;;;;
2021/08/25 13:56:23;;;;;;;1.9;1.8;;;;;;;;;;;;;
2021/08/25 13:58:48;;;;;;;2.1;2;;;;;;;;;;;;;
2021/08/25 14:01:13;;;;;;;2.5;2;;;;;;;;;;;;;
2021/08/25 14:03:38;;;;;;;2;1.8;;;;;;;;;;;;;
2021/08/25 14:06:03;;;;;;;2.2;2;;;;;;;;;;;;;
2021/08/25 14:08:28;;;;;;;3.8;2.3;;;;;;;;;;;;;
2021/08/25 14:10:53;;;;;;;2.4;2.1;;;;;;;;;;;;;
2021/08/25 14:13:19;;;;;;;3.1;2.3;;;;;;;;;;;;;
2021/08/25 14:15:43;;;;;;;2.2;2;;;;;;;;;;;;;
2021/08/25 14:18:09;;;;;;;2.8;1.8;;;;;;;;;;;;;
2021/08/25 14:20:34;;;;;;;2.1;1.7;;;;;;;;;;;;;
2021/08/25 14:22:59;;;;;;;2.6;1.7;;;;;;;;;;;;;
2021/08/25 14:25:24;;;;;;;2.7;2.3;;;;;;;;;;;;;
2021/08/25 14:27:50;;;;;;;2.3;1.7;;;;;;;;;;;;;
2021/08/25 14:30:15;;;;;;;2.4;1.9;;;;;;;;;;;;;
2021/08/25 14:32:41;;;;;;;3.2;2.1;;;;;;;;;;;;;
2021/08/25 14:35:06;;;;;;;2.4;1.8;;;;;;;;;;;;;
2021/08/25 14:37:32;;;;;;;2.2;1.9;;;;;;;;;;;;;
2021/08/25 14:39:56;;;;;;;2.9;2.1;;;;;;;;;;;;;
2021/08/25 14:42:21;;;;;;;2.6;1.9;;;;;;;;;;;;;
2021/08/25 14:44:46;;;;;;;3.6;1.9;;;;;;;;;;;;;
2021/08/25 14:47:11;;;;;;;2.6;2.2;;;;;;;;;;;;;
2021/08/25 14:49:36;;;;;;;2.6;2.1;;;;;;;;;;;;;
2021/08/25 14:52:02;;;;;;;2.3;2;;;;;;;;;;;;;
2021/08/25 14:54:27;;;;;;;2.3;2.1;;;;;;;;;;;;;
2021/08/25 14:56:52;;;;;;;2.5;2.2;;;;;;;;;;;;;
2021/08/25 14:59:17;;;;;;;2.6;2.1;;;;;;;;;;;;;
2021/08/25 15:01:42;;;;;;;2.9;2.6;;;;;;;;;;;;;
2021/08/25 15:04:07;;;;;;;2.2;1.9;;;;;;;;;;;;;
2021/08/25 15:06:36;;;;;;;2.2;1.9;;;;;;;;;;;;;
2021/08/25 15:08:58;;;;;;;2.3;2.1;;;;;;;;;;;;;
2021/08/25 15:11:23;;;;;;;2.9;2.3;;;;;;;;;;;;;
2021/08/25 15:13:48;;;;;;;2.5;2;;;;;;;;;;;;;
2021/08/25 15:16:13;;;;;;;2.7;2.1;;;;;;;;;;;;;
2021/08/25 15:18:38;;;;;;;3.1;2.2;;;;;;;;;;;;;
2021/08/25 15:21:03;;;;;;;2.8;2.1;;;;;;;;;;;;;
2021/08/25 15:23:28;;;;;;;2.6;2.2;;;;;;;;;;;;;
2021/08/25 15:25:54;;;;;;;2.8;2;;;;;;;;;;;;;
2021/08/25 15:28:19;;;;;;;2.3;2.1;;;;;;;;;;;;;
2021/08/25 15:30:44;;;;;;;2.7;2.1;;;;;;;;;;;;;
2021/08/25 15:33:11;;;;;;;3.8;2.4;;;;;;;;;;;;;
2021/08/25 15:35:34;;;;;;;2.4;2.2;;;;;;;;;;;;;
2021/08/25 15:38:00;;;;;;;2.5;2.2;;;;;;;;;;;;;
2021/08/25 15:40:25;;;;;;;2.3;2.1;;;;;;;;;;;;;
2021/08/25 15:42:50;;;;;;;3;2.2;;;;;;;;;;;;;
2021/08/25 15:45:16;;;;;;;2.1;1.9;;;;;;;;;;;;;
2021/08/25 15:47:40;;;;;;;2.3;2;;;;;;;;;;;;;
2021/08/25 15:50:05;;;;;;;3.1;2.2;;;;;;;;;;;;;
2021/08/25 15:52:31;;;;;;;2.7;2.2;;;;;;;;;;;;;
2021/08/25 15:54:56;;;;;;;2.5;2;;;;;;;;;;;;;
2021/08/25 15:57:21;;;;;;;2.8;2.1;;;;;;;;;;;;;
2021/08/25 15:59:47;;;;;;;2.6;2.1;;;;;;;;;;;;;
2021/08/25 16:02:12;;;;;;;3.3;2.1;;;;;;;;;;;;;
2021/08/25 16:04:37;;;;;;;2.7;2.1;;;;;;;;;;;;;
2021/08/25 16:07:02;;;;;;;2.6;2.3;;;;;;;;;;;;;
2021/08/25 16:09:27;;;;;;;2.9;2.2;;;;;;;;;;;;;
2021/08/25 16:11:52;;;;;;;3;2.3;;;;;;;;;;;;;
2021/08/25 16:14:18;;;;;;;3;2.4;;;;;;;;;;;;;
2021/08/25 16:16:43;;;;;;;3.6;2.4;;;;;;;;;;;;;
2021/08/25 16:19:08;;;;;;;2.9;1.9;;;;;;;;;;;;;
2021/08/25 16:21:33;;;;;;;2.2;2;;;;;;;;;;;;;
2021/08/25 16:23:58;;;;;;;3.8;2.8;;;;;;;;;;;;;
2021/08/25 16:26:23;;;;;;;2.7;2.1;;;;;;;;;;;;;
2021/08/25 16:28:48;;;;;;;2.3;2.1;;;;;;;;;;;;;
2021/08/25 16:31:13;;;;;;;2.8;2.2;;;;;;;;;;;;;
2021/08/25 16:33:38;;;;;;;2.3;2.1;;;;;;;;;;;;;
2021/08/25 16:36:04;;;;;;;2.8;2.1;;;;;;;;;;;;;
2021/08/25 16:38:29;;;;;;;2.6;2.1;;;;;;;;;;;;;
2021/08/25 16:40:54;;;;;;;2.7;2.1;;;;;;;;;;;;;
2021/08/25 16:43:19;;;;;;;2.2;2;;;;;;;;;;;;;
2021/08/25 16:45:44;;;;;;;2.9;2.6;;;;;;;;;;;;;
2021/08/25 16:48:09;;;;;;;5;2.4;;;;;;;;;;;;;
2021/08/25 16:50:34;;;;;;;2.4;2.2;;;;;;;;;;;;;
2021/08/25 16:53:00;;;;;;;2.9;2.4;;;;;;;;;;;;;
2021/08/25 16:55:26;;;;;;;3.3;2.7;;;;;;;;;;;;;
2021/08/25 16:57:50;;;;;;;2.5;2.3;;;;;;;;;;;;;
2021/08/25 17:00:15;;;;;;;2.9;2.4;;;;;;;;;;;;;
2021/08/25 17:02:40;;;;;;;3.1;2.4;;;;;;;;;;;;;
2021/08/25 17:05:06;;;;;;;2.9;2.4;;;;;;;;;;;;;
2021/08/25 17:07:31;;;;;;;2.8;2.3;;;;;;;;;;;;;
2021/08/25 17:09:56;;;;;;;5.1;2.6;;;;;;;;;;;;;
2021/08/25 17:12:21;;;;;;;3.3;2.4;;;;;;;;;;;;;
2021/08/25 17:14:46;;;;;;;3.6;2.6;;;;;;;;;;;;;
2021/08/25 17:17:12;;;;;;;3.1;2.4;;;;;;;;;;;;;
2021/08/25 17:19:37;;;;;;;2.8;2.3;;;;;;;;;;;;;
2021/08/25 17:22:02;;;;;;;2.7;2.5;;;;;;;;;;;;;
2021/08/25 17:24:27;;;;;;;3.3;2.4;;;;;;;;;;;;;
2021/08/25 17:26:52;;;;;;;2.4;2;;;;;;;;;;;;;
2021/08/25 17:29:17;;;;;;;3.9;2.5;;;;;;;;;;;;;
2021/08/25 17:31:42;;;;;;;3.7;2.6;;;;;;;;;;;;;
2021/08/25 17:34:07;;;;;;;2.2;2;;;;;;;;;;;;;
2021/08/25 17:36:33;;;;;;;2.8;2.2;;;;;;;;;;;;;
2021/08/25 17:38:58;;;;;;;3.9;2.4;;;;;;;;;;;;;
2021/08/25 17:41:23;;;;;;;3.1;2.2;;;;;;;;;;;;;